createdAt,value
2024-02-07T00:00:40.456Z,758.00
2024-02-07T00:01:40.430Z,762.00
2024-02-07T00:02:40.389Z,763.00
2024-02-07T00:03:40.428Z,761.00
2024-02-07T00:04:40.604Z,759.00
2024-02-07T00:05:40.447Z,756.00
2024-02-07T00:06:40.403Z,755.00
2024-02-07T00:07:40.493Z,755.00
2024-02-07T00:08:40.496Z,755.00
2024-02-07T00:09:40.404Z,755.00
2024-02-07T00:10:40.426Z,755.00
2024-02-07T00:11:40.413Z,754.00
2024-02-07T00:12:40.414Z,755.00
2024-02-07T00:13:40.469Z,754.00
2024-02-07T00:14:40.414Z,751.00
2024-02-07T00:15:40.415Z,748.00
2024-02-07T00:16:40.462Z,748.00
2024-02-07T00:17:40.502Z,745.00
2024-02-07T00:18:40.446Z,745.00
2024-02-07T00:19:40.580Z,745.00
2024-02-07T00:20:40.437Z,745.00
2024-02-07T00:21:40.498Z,743.00
2024-02-07T00:22:40.453Z,742.00
2024-02-07T00:23:40.436Z,743.00
2024-02-07T00:24:40.431Z,743.00
2024-02-07T00:25:40.502Z,737.00
2024-02-07T00:26:40.445Z,731.00
2024-02-07T00:27:40.458Z,733.00
2024-02-07T00:28:40.566Z,733.00
2024-02-07T00:29:40.595Z,730.00
2024-02-07T00:30:41.066Z,731.00
2024-02-07T00:31:40.834Z,733.00
2024-02-07T00:32:40.822Z,735.00
2024-02-07T00:33:40.878Z,732.00
2024-02-07T00:34:41.057Z,731.00
2024-02-07T00:35:41.113Z,729.00
2024-02-07T00:36:41.078Z,730.00
2024-02-07T00:37:41.268Z,730.00
2024-02-07T00:38:41.218Z,726.00
2024-02-07T00:39:41.314Z,731.00
2024-02-07T00:40:41.358Z,732.00
2024-02-07T00:41:41.433Z,736.00
2024-02-07T00:42:41.507Z,737.00
2024-02-07T00:43:41.591Z,738.00
2024-02-07T00:44:41.620Z,740.00
2024-02-07T00:45:41.721Z,742.00
2024-02-07T00:46:41.859Z,741.00
2024-02-07T00:47:41.908Z,739.00
2024-02-07T00:48:41.925Z,737.00
2024-02-07T00:49:42.058Z,735.00
2024-02-07T00:50:42.047Z,736.00
2024-02-07T00:51:42.138Z,735.00
2024-02-07T00:52:42.244Z,734.00
2024-02-07T00:53:42.259Z,735.00
2024-02-07T00:54:42.322Z,736.00
2024-02-07T00:55:42.416Z,738.00
2024-02-07T00:56:42.456Z,737.00
2024-02-07T00:57:42.517Z,737.00
2024-02-07T00:58:42.600Z,734.00
2024-02-07T00:59:42.655Z,733.00
2024-02-07T01:00:42.760Z,733.00
2024-02-07T01:01:42.936Z,731.00
2024-02-07T01:02:42.928Z,730.00
2024-02-07T01:03:42.961Z,732.00
2024-02-07T01:04:43.060Z,732.00
2024-02-07T01:05:43.089Z,732.00
2024-02-07T01:06:43.192Z,730.00
2024-02-07T01:07:43.244Z,730.00
2024-02-07T01:08:43.285Z,732.00
2024-02-07T01:09:43.367Z,733.00
2024-02-07T01:10:43.515Z,733.00
2024-02-07T01:11:43.499Z,732.00
2024-02-07T01:12:43.563Z,732.00
2024-02-07T01:13:43.782Z,733.00
2024-02-07T01:14:43.690Z,734.00
2024-02-07T01:15:43.776Z,728.00
2024-02-07T01:16:43.840Z,726.00
2024-02-07T01:17:43.925Z,726.00
2024-02-07T01:18:44.017Z,725.00
2024-02-07T01:19:44.141Z,725.00
2024-02-07T01:20:44.210Z,723.00
2024-02-07T01:21:44.174Z,722.00
2024-02-07T01:22:44.452Z,723.00
2024-02-07T01:23:44.380Z,723.00
2024-02-07T01:24:44.370Z,725.00
2024-02-07T01:25:44.539Z,722.00
2024-02-07T01:26:44.510Z,720.00
2024-02-07T01:27:44.582Z,719.00
2024-02-07T01:28:44.702Z,719.00
2024-02-07T01:29:44.698Z,719.00
2024-02-07T01:30:44.784Z,716.00
2024-02-07T01:31:44.908Z,715.00
2024-02-07T01:32:44.950Z,715.00
2024-02-07T01:33:45.080Z,717.00
2024-02-07T01:34:45.113Z,718.00
2024-02-07T01:35:45.091Z,716.00
2024-02-07T01:36:45.136Z,719.00
2024-02-07T01:37:45.223Z,718.00
2024-02-07T01:38:45.269Z,718.00
2024-02-07T01:39:45.354Z,719.00
2024-02-07T01:40:45.411Z,720.00
2024-02-07T01:41:45.459Z,721.00
2024-02-07T01:42:45.519Z,720.00
2024-02-07T01:43:45.608Z,718.00
2024-02-07T01:44:45.633Z,717.00
2024-02-07T01:45:45.738Z,715.00
2024-02-07T01:46:45.813Z,715.00
2024-02-07T01:47:45.850Z,716.00
2024-02-07T01:48:45.960Z,715.00
2024-02-07T01:49:45.964Z,717.00
2024-02-07T01:50:46.017Z,715.00
2024-02-07T01:51:46.096Z,714.00
2024-02-07T01:52:46.188Z,710.00
2024-02-07T01:53:46.200Z,709.00
2024-02-07T01:54:46.260Z,710.00
2024-02-07T01:55:46.393Z,711.00
2024-02-07T01:56:46.504Z,710.00
2024-02-07T01:57:46.467Z,709.00
2024-02-07T01:58:46.560Z,709.00
2024-02-07T01:59:46.669Z,711.00
2024-02-07T02:00:46.691Z,713.00
2024-02-07T02:01:46.738Z,716.00
2024-02-07T02:02:46.775Z,716.00
2024-02-07T02:03:46.930Z,717.00
2024-02-07T02:04:46.957Z,718.00
2024-02-07T02:05:46.963Z,719.00
2024-02-07T02:06:47.088Z,717.00
2024-02-07T02:07:47.178Z,718.00
2024-02-07T02:08:47.157Z,717.00
2024-02-07T02:09:47.242Z,718.00
2024-02-07T02:10:47.300Z,717.00
2024-02-07T02:11:47.359Z,720.00
2024-02-07T02:12:47.433Z,720.00
2024-02-07T02:13:47.577Z,719.00
2024-02-07T02:14:47.553Z,719.00
2024-02-07T02:15:47.626Z,716.00
2024-02-07T02:16:47.792Z,715.00
2024-02-07T02:17:47.828Z,716.00
2024-02-07T02:18:47.848Z,712.00
2024-02-07T02:19:47.984Z,710.00
2024-02-07T02:20:48.161Z,709.00
2024-02-07T02:21:48.038Z,712.00
2024-02-07T02:22:48.273Z,712.00
2024-02-07T02:23:48.164Z,712.00
2024-02-07T02:24:48.251Z,711.00
2024-02-07T02:25:48.485Z,709.00
2024-02-07T02:26:48.395Z,711.00
2024-02-07T02:27:48.456Z,711.00
2024-02-07T02:28:48.541Z,712.00
2024-02-07T02:29:48.580Z,712.00
2024-02-07T02:30:48.645Z,714.00
2024-02-07T02:31:48.861Z,713.00
2024-02-07T02:32:48.803Z,711.00
2024-02-07T02:33:48.939Z,712.00
2024-02-07T02:34:48.986Z,712.00
2024-02-07T02:35:49.010Z,712.00
2024-02-07T02:36:49.036Z,709.00
2024-02-07T02:37:49.192Z,708.00
2024-02-07T02:38:49.183Z,707.00
2024-02-07T02:39:49.250Z,705.00
2024-02-07T02:40:49.404Z,706.00
2024-02-07T02:41:49.380Z,705.00
2024-02-07T02:42:49.452Z,705.00
2024-02-07T02:43:49.649Z,704.00
2024-02-07T02:44:49.573Z,702.00
2024-02-07T02:45:49.625Z,700.00
2024-02-07T02:46:49.745Z,700.00
2024-02-07T02:47:49.769Z,698.00
2024-02-07T02:48:49.910Z,698.00
2024-02-07T02:49:49.942Z,696.00
2024-02-07T02:50:50.067Z,697.00
2024-02-07T02:51:50.103Z,697.00
2024-02-07T02:52:50.224Z,695.00
2024-02-07T02:53:50.213Z,694.00
2024-02-07T02:54:50.223Z,695.00
2024-02-07T02:55:50.292Z,698.00
2024-02-07T02:56:50.422Z,698.00
2024-02-07T02:57:50.421Z,697.00
2024-02-07T02:58:50.514Z,698.00
2024-02-07T02:59:50.562Z,700.00
2024-02-07T03:00:50.730Z,701.00
2024-02-07T03:01:50.711Z,702.00
2024-02-07T03:02:50.765Z,702.00
2024-02-07T03:03:50.822Z,702.00
2024-02-07T03:04:51.032Z,701.00
2024-02-07T03:05:51.084Z,702.00
2024-02-07T03:06:51.064Z,707.00
2024-02-07T03:07:51.150Z,708.00
2024-02-07T03:08:51.146Z,706.00
2024-02-07T03:09:51.208Z,706.00
2024-02-07T03:10:51.366Z,703.00
2024-02-07T03:11:51.363Z,703.00
2024-02-07T03:12:51.437Z,701.00
2024-02-07T03:13:51.535Z,700.00
2024-02-07T03:14:51.549Z,699.00
2024-02-07T03:15:51.625Z,698.00
2024-02-07T03:16:51.819Z,696.00
2024-02-07T03:17:51.859Z,695.00
2024-02-07T03:18:51.903Z,696.00
2024-02-07T03:19:51.920Z,695.00
2024-02-07T03:20:51.965Z,692.00
2024-02-07T03:21:52.040Z,693.00
2024-02-07T03:22:52.147Z,690.00
2024-02-07T03:23:52.181Z,692.00
2024-02-07T03:24:52.248Z,692.00
2024-02-07T03:25:52.393Z,690.00
2024-02-07T03:26:52.398Z,687.00
2024-02-07T03:27:52.442Z,686.00
2024-02-07T03:28:52.586Z,687.00
2024-02-07T03:29:52.664Z,687.00
2024-02-07T03:30:52.662Z,686.00
2024-02-07T03:31:52.854Z,686.00
2024-02-07T03:32:52.869Z,686.00
2024-02-07T03:34:32.754Z,683.00
2024-02-07T03:35:32.663Z,693.00
2024-02-07T03:36:32.690Z,691.00
2024-02-07T03:37:32.711Z,689.00
2024-02-07T03:38:32.673Z,689.00
2024-02-07T03:39:32.656Z,689.00
2024-02-07T03:40:32.860Z,690.00
2024-02-07T03:41:32.688Z,690.00
2024-02-07T03:42:32.699Z,689.00
2024-02-07T03:43:32.839Z,690.00
2024-02-07T03:44:32.677Z,691.00
2024-02-07T03:45:32.695Z,692.00
2024-02-07T03:46:32.775Z,693.00
2024-02-07T03:47:32.893Z,696.00
2024-02-07T03:48:32.925Z,696.00
2024-02-07T03:49:32.999Z,696.00
2024-02-07T03:50:33.093Z,695.00
2024-02-07T03:51:33.088Z,692.00
2024-02-07T03:52:33.201Z,692.00
2024-02-07T03:53:33.221Z,694.00
2024-02-07T03:54:33.261Z,692.00
2024-02-07T03:55:33.389Z,692.00
2024-02-07T03:56:33.389Z,692.00
2024-02-07T03:57:33.450Z,691.00
2024-02-07T03:58:33.595Z,690.00
2024-02-07T03:59:33.573Z,692.00
2024-02-07T04:00:33.645Z,691.00
2024-02-07T04:01:33.763Z,689.00
2024-02-07T04:02:33.776Z,687.00
2024-02-07T04:03:33.833Z,685.00
2024-02-07T04:04:34.002Z,686.00
2024-02-07T04:05:34.074Z,686.00
2024-02-07T04:06:34.171Z,681.00
2024-02-07T04:07:34.392Z,681.00
2024-02-07T04:08:36.155Z,679.00
2024-02-07T04:09:34.257Z,679.00
2024-02-07T04:10:34.214Z,680.00
2024-02-07T04:11:34.173Z,681.00
2024-02-07T04:12:34.169Z,683.00
2024-02-07T04:13:34.183Z,683.00
2024-02-07T04:14:34.185Z,681.00
2024-02-07T04:15:34.160Z,681.00
2024-02-07T04:16:34.272Z,679.00
2024-02-07T04:17:34.255Z,680.00
2024-02-07T04:18:34.319Z,682.00
2024-02-07T04:19:34.216Z,682.00
2024-02-07T04:20:34.246Z,685.00
2024-02-07T04:21:34.168Z,687.00
2024-02-07T04:22:34.195Z,684.00
2024-02-07T04:23:34.200Z,681.00
2024-02-07T04:24:34.188Z,681.00
2024-02-07T04:25:34.288Z,681.00
2024-02-07T04:26:34.315Z,683.00
2024-02-07T04:27:44.459Z,685.00
2024-02-07T04:28:34.417Z,685.00
2024-02-07T04:29:34.387Z,683.00
2024-02-07T04:30:34.402Z,682.00
2024-02-07T04:31:34.452Z,681.00
2024-02-07T04:32:41.819Z,678.00
2024-02-07T04:33:41.795Z,684.00
2024-02-07T04:34:41.813Z,685.00
2024-02-07T04:35:41.777Z,684.00
2024-02-07T04:36:41.789Z,682.00
2024-02-07T04:37:41.822Z,681.00
2024-02-07T04:38:43.653Z,680.00
2024-02-07T04:39:41.788Z,684.00
2024-02-07T04:40:41.821Z,684.00
2024-02-07T04:41:41.791Z,687.00
2024-02-07T04:42:41.796Z,686.00
2024-02-07T04:43:41.878Z,685.00
2024-02-07T04:44:41.923Z,687.00
2024-02-07T04:45:41.977Z,684.00
2024-02-07T04:46:42.122Z,684.00
2024-02-07T04:47:47.154Z,682.00
2024-02-07T04:48:42.140Z,682.00
2024-02-07T04:49:42.319Z,679.00
2024-02-07T04:50:42.127Z,680.00
2024-02-07T04:51:42.181Z,679.00
2024-02-07T04:52:42.175Z,679.00
2024-02-07T04:53:42.138Z,677.00
2024-02-07T04:54:42.185Z,674.00
2024-02-07T04:55:42.259Z,673.00
2024-02-07T04:56:42.308Z,673.00
2024-02-07T04:57:52.395Z,671.00
2024-02-07T04:58:42.397Z,672.00
2024-02-07T04:59:42.368Z,672.00
2024-02-07T05:00:42.397Z,674.00
2024-02-07T05:01:42.427Z,674.00
2024-02-07T05:02:52.444Z,677.00
2024-02-07T05:03:42.474Z,675.00
2024-02-07T05:04:42.422Z,675.00
2024-02-07T05:05:42.402Z,679.00
2024-02-07T05:06:42.410Z,678.00
2024-02-07T05:07:42.442Z,677.00
2024-02-07T05:08:42.391Z,679.00
2024-02-07T05:09:42.386Z,674.00
2024-02-07T05:10:42.475Z,673.00
2024-02-07T05:11:42.397Z,672.00
2024-02-07T05:12:42.401Z,673.00
2024-02-07T05:13:42.457Z,673.00
2024-02-07T05:14:42.398Z,671.00
2024-02-07T05:15:42.402Z,670.00
2024-02-07T05:16:42.418Z,671.00
2024-02-07T05:17:42.453Z,670.00
2024-02-07T05:18:42.648Z,669.00
2024-02-07T05:19:42.490Z,668.00
2024-02-07T05:20:42.410Z,669.00
2024-02-07T05:21:42.425Z,671.00
2024-02-07T05:22:42.417Z,672.00
2024-02-07T05:23:42.447Z,671.00
2024-02-07T05:24:42.434Z,671.00
2024-02-07T05:25:42.604Z,672.00
2024-02-07T05:26:42.578Z,671.00
2024-02-07T05:27:42.649Z,672.00
2024-02-07T05:28:42.841Z,672.00
2024-02-07T05:29:42.772Z,672.00
2024-02-07T05:30:42.839Z,669.00
2024-02-07T05:31:42.935Z,668.00
2024-02-07T05:32:43.137Z,669.00
2024-02-07T05:33:43.266Z,672.00
2024-02-07T05:34:43.262Z,673.00
2024-02-07T05:35:43.298Z,674.00
2024-02-07T05:36:43.240Z,674.00
2024-02-07T05:37:48.243Z,673.00
2024-02-07T05:38:43.301Z,674.00
2024-02-07T05:39:43.290Z,674.00
2024-02-07T05:40:43.371Z,671.00
2024-02-07T05:41:43.288Z,669.00
2024-02-07T05:42:43.298Z,668.00
2024-02-07T05:43:43.354Z,668.00
2024-02-07T05:44:43.308Z,666.00
2024-02-07T05:45:43.318Z,664.00
2024-02-07T05:46:43.453Z,665.00
2024-02-07T05:47:43.467Z,666.00
2024-02-07T05:48:43.540Z,667.00
2024-02-07T05:49:43.603Z,666.00
2024-02-07T05:50:43.649Z,663.00
2024-02-07T05:51:43.707Z,663.00
2024-02-07T05:52:43.802Z,662.00
2024-02-07T05:53:43.868Z,663.00
2024-02-07T05:54:43.909Z,663.00
2024-02-07T05:55:44.086Z,664.00
2024-02-07T05:56:44.033Z,665.00
2024-02-07T05:57:44.090Z,662.00
2024-02-07T05:58:44.220Z,666.00
2024-02-07T05:59:44.227Z,668.00
2024-02-07T06:00:44.338Z,667.00
2024-02-07T06:01:44.424Z,664.00
2024-02-07T06:02:48.191Z,664.00
2024-02-07T06:03:44.446Z,665.00
2024-02-07T06:04:44.487Z,664.00
2024-02-07T06:05:44.434Z,665.00
2024-02-07T06:06:44.444Z,665.00
2024-02-07T06:07:44.519Z,664.00
2024-02-07T06:08:44.440Z,666.00
2024-02-07T06:09:44.449Z,662.00
2024-02-07T06:10:44.470Z,662.00
2024-02-07T06:11:44.439Z,664.00
2024-02-07T06:12:44.445Z,662.00
2024-02-07T06:13:44.463Z,660.00
2024-02-07T06:14:44.453Z,659.00
2024-02-07T06:15:44.638Z,658.00
2024-02-07T06:16:45.502Z,656.00
2024-02-07T06:17:44.557Z,657.00
2024-02-07T06:18:44.703Z,657.00
2024-02-07T06:19:44.892Z,661.00
2024-02-07T06:20:44.866Z,660.00
2024-02-07T06:21:44.832Z,657.00
2024-02-07T06:22:44.913Z,655.00
2024-02-07T06:23:44.968Z,654.00
2024-02-07T06:24:45.046Z,654.00
2024-02-07T06:25:45.085Z,654.00
2024-02-07T06:26:45.237Z,658.00
2024-02-07T06:27:45.189Z,658.00
2024-02-07T06:28:45.335Z,657.00
2024-02-07T06:29:45.317Z,655.00
2024-02-07T06:30:45.390Z,652.00
2024-02-07T06:31:45.469Z,652.00
2024-02-07T06:32:45.576Z,654.00
2024-02-07T06:33:45.657Z,654.00
2024-02-07T06:34:45.658Z,656.00
2024-02-07T06:35:45.695Z,656.00
2024-02-07T06:36:45.755Z,656.00
2024-02-07T06:37:45.837Z,656.00
2024-02-07T06:38:45.873Z,655.00
2024-02-07T06:39:45.968Z,657.00
2024-02-07T06:40:46.038Z,659.00
2024-02-07T06:41:46.091Z,661.00
2024-02-07T06:42:46.137Z,659.00
2024-02-07T06:43:46.246Z,656.00
2024-02-07T06:44:46.258Z,655.00
2024-02-07T06:45:46.343Z,657.00
2024-02-07T06:46:46.426Z,654.00
2024-02-07T06:47:46.498Z,654.00
2024-02-07T06:48:46.559Z,651.00
2024-02-07T06:49:46.624Z,653.00
2024-02-07T06:50:46.654Z,652.00
2024-02-07T06:51:47.667Z,652.00
2024-02-07T06:52:46.803Z,653.00
2024-02-07T06:53:46.844Z,653.00
2024-02-07T06:54:46.906Z,653.00
2024-02-07T06:55:47.007Z,654.00
2024-02-07T06:56:47.088Z,652.00
2024-02-07T06:57:47.110Z,649.00
2024-02-07T06:58:47.211Z,646.00
2024-02-07T06:59:47.228Z,647.00
2024-02-07T07:00:47.319Z,647.00
2024-02-07T07:01:47.387Z,646.00
2024-02-07T07:02:52.487Z,644.00
2024-02-07T07:03:47.480Z,653.00
2024-02-07T07:04:47.448Z,655.00
2024-02-07T07:05:47.447Z,658.00
2024-02-07T07:06:47.429Z,670.00
2024-02-07T07:07:47.495Z,729.00
2024-02-07T07:08:47.446Z,752.00
2024-02-07T07:09:47.453Z,761.00
2024-02-07T07:10:47.493Z,770.00
2024-02-07T07:11:47.418Z,782.00
2024-02-07T07:12:47.408Z,789.00
2024-02-07T07:13:47.489Z,797.00
2024-02-07T07:14:47.433Z,806.00
2024-02-07T07:15:47.445Z,820.00
2024-02-07T07:16:47.484Z,826.00
2024-02-07T07:17:47.457Z,839.00
2024-02-07T07:18:47.484Z,856.00
2024-02-07T07:19:47.454Z,867.00
2024-02-07T07:20:47.438Z,879.00
2024-02-07T07:21:47.455Z,903.00
2024-02-07T07:22:56.407Z,915.00
2024-02-07T07:23:48.453Z,921.00
2024-02-07T07:24:47.441Z,922.00
2024-02-07T07:25:47.452Z,927.00
2024-02-07T07:26:47.443Z,938.00
2024-02-07T07:27:47.454Z,950.00
2024-02-07T07:28:47.498Z,958.00
2024-02-07T07:29:47.458Z,964.00
2024-02-07T07:30:47.476Z,967.00
2024-02-07T07:31:47.550Z,978.00
2024-02-07T07:32:47.609Z,985.00
2024-02-07T07:33:47.663Z,991.00
2024-02-07T07:34:47.816Z,1001.00
2024-02-07T07:35:47.863Z,1007.00
2024-02-07T07:36:47.850Z,1014.00
2024-02-07T07:37:47.941Z,1028.00
2024-02-07T07:38:47.941Z,1036.00
2024-02-07T07:39:48.014Z,1051.00
2024-02-07T07:40:48.096Z,1059.00
2024-02-07T07:41:48.123Z,1070.00
2024-02-07T07:42:48.177Z,1103.00
2024-02-07T07:43:48.295Z,1100.00
2024-02-07T07:44:48.315Z,1100.00
2024-02-07T07:45:48.364Z,1105.00
2024-02-07T07:46:48.480Z,1098.00
2024-02-07T07:47:48.501Z,1097.00
2024-02-07T07:48:48.613Z,1108.00
2024-02-07T07:49:48.646Z,1124.00
2024-02-07T07:50:48.666Z,1132.00
2024-02-07T07:51:48.754Z,1137.00
2024-02-07T07:52:48.841Z,1146.00
2024-02-07T07:53:48.851Z,1156.00
2024-02-07T07:54:48.908Z,1155.00
2024-02-07T07:55:49.077Z,1154.00
2024-02-07T07:56:49.030Z,1157.00
2024-02-07T07:57:49.078Z,1152.00
2024-02-07T07:58:52.773Z,1149.00
2024-02-07T07:59:49.094Z,1143.00
2024-02-07T08:00:52.049Z,1075.00
2024-02-07T08:01:49.227Z,1095.00
2024-02-07T08:02:49.095Z,1074.00
2024-02-07T08:03:49.105Z,1074.00
2024-02-07T08:04:49.166Z,997.00
2024-02-07T08:05:49.333Z,969.00
2024-02-07T08:06:49.166Z,920.00
2024-02-07T08:07:49.193Z,931.00
2024-02-07T08:08:49.143Z,941.00
2024-02-07T08:09:49.112Z,939.00
2024-02-07T08:10:49.137Z,927.00
2024-02-07T08:11:49.109Z,923.00
2024-02-07T08:12:49.113Z,885.00
2024-02-07T08:13:49.203Z,884.00
2024-02-07T08:14:49.106Z,849.00
2024-02-07T08:15:49.140Z,850.00
2024-02-07T08:16:49.127Z,858.00
2024-02-07T08:17:49.157Z,819.00
2024-02-07T08:18:51.927Z,814.00
2024-02-07T08:19:50.258Z,808.00
2024-02-07T08:20:49.114Z,815.00
2024-02-07T08:21:49.144Z,815.00
2024-02-07T08:22:49.152Z,819.00
2024-02-07T08:23:49.146Z,819.00
2024-02-07T08:24:49.151Z,816.00
2024-02-07T08:25:49.217Z,799.00
2024-02-07T08:26:50.406Z,795.00
2024-02-07T08:27:49.142Z,759.00
2024-02-07T08:28:49.219Z,787.00
2024-02-07T08:29:49.173Z,780.00
2024-02-07T08:30:49.213Z,782.00
2024-02-07T08:31:49.344Z,786.00
2024-02-07T08:32:49.459Z,791.00
2024-02-07T08:33:49.632Z,789.00
2024-02-07T08:34:49.600Z,788.00
2024-02-07T08:35:49.687Z,791.00
2024-02-07T08:36:49.598Z,794.00
2024-02-07T08:37:49.689Z,790.00
2024-02-07T08:38:49.672Z,789.00
2024-02-07T08:39:49.727Z,789.00
2024-02-07T08:40:49.827Z,786.00
2024-02-07T08:41:49.845Z,791.00
2024-02-07T08:42:49.907Z,799.00
2024-02-07T08:43:50.041Z,813.00
2024-02-07T08:44:49.983Z,824.00
2024-02-07T08:45:50.046Z,838.00
2024-02-07T08:46:50.146Z,854.00
2024-02-07T08:47:50.236Z,864.00
2024-02-07T08:48:50.397Z,858.00
2024-02-07T08:49:50.318Z,848.00
2024-02-07T08:50:50.269Z,843.00
2024-02-07T08:51:50.310Z,838.00
2024-02-07T08:52:50.419Z,834.00
2024-02-07T08:53:50.365Z,829.00
2024-02-07T08:54:50.376Z,827.00
2024-02-07T08:55:50.483Z,826.00
2024-02-07T08:56:50.458Z,824.00
2024-02-07T08:57:50.483Z,824.00
2024-02-07T08:58:50.506Z,827.00
2024-02-07T08:59:50.527Z,827.00
2024-02-07T09:00:50.536Z,826.00
2024-02-07T09:01:50.642Z,825.00
2024-02-07T09:02:50.642Z,823.00
2024-02-07T09:03:50.624Z,823.00
2024-02-07T09:04:50.746Z,823.00
2024-02-07T09:05:50.729Z,820.00
2024-02-07T09:06:50.752Z,821.00
2024-02-07T09:07:55.913Z,822.00
2024-02-07T09:08:50.744Z,820.00
2024-02-07T09:09:50.744Z,821.00
2024-02-07T09:10:50.782Z,822.00
2024-02-07T09:11:50.762Z,818.00
2024-02-07T09:12:50.774Z,820.00
2024-02-07T09:13:50.814Z,819.00
2024-02-07T09:14:50.751Z,818.00
2024-02-07T09:15:50.766Z,819.00
2024-02-07T09:16:50.826Z,818.00
2024-02-07T09:17:50.858Z,821.00
2024-02-07T09:18:50.879Z,820.00
2024-02-07T09:19:50.940Z,816.00
2024-02-07T09:20:50.942Z,815.00
2024-02-07T09:21:50.986Z,816.00
2024-02-07T09:22:51.080Z,817.00
2024-02-07T09:23:51.075Z,821.00
2024-02-07T09:24:51.101Z,818.00
2024-02-07T09:25:51.240Z,818.00
2024-02-07T09:26:51.181Z,817.00
2024-02-07T09:27:51.243Z,817.00
2024-02-07T09:28:51.298Z,816.00
2024-02-07T09:29:59.554Z,818.00
2024-02-07T09:30:52.314Z,815.00
2024-02-07T09:31:51.397Z,812.00
2024-02-07T09:32:51.396Z,806.00
2024-02-07T09:33:51.344Z,803.00
2024-02-07T09:34:51.382Z,800.00
2024-02-07T09:35:51.468Z,800.00
2024-02-07T09:36:51.333Z,800.00
2024-02-07T09:37:51.390Z,799.00
2024-02-07T09:38:51.336Z,798.00
2024-02-07T09:39:51.343Z,798.00
2024-02-07T09:40:51.393Z,797.00
2024-02-07T09:41:51.343Z,794.00
2024-02-07T09:42:51.348Z,794.00
2024-02-07T09:43:51.368Z,794.00
2024-02-07T09:44:51.486Z,796.00
2024-02-07T09:45:51.412Z,797.00
2024-02-07T09:46:51.496Z,796.00
2024-02-07T09:47:51.607Z,798.00
2024-02-07T09:48:51.629Z,799.00
2024-02-07T09:49:51.600Z,795.00
2024-02-07T09:50:51.597Z,793.00
2024-02-07T09:51:51.654Z,792.00
2024-02-07T09:52:51.712Z,792.00
2024-02-07T09:53:51.726Z,792.00
2024-02-07T09:54:51.797Z,792.00
2024-02-07T09:55:51.888Z,789.00
2024-02-07T09:56:51.838Z,786.00
2024-02-07T09:57:51.899Z,787.00
2024-02-07T09:58:51.968Z,788.00
2024-02-07T09:59:51.970Z,787.00
2024-02-07T10:00:52.040Z,794.00
2024-02-07T10:01:52.088Z,798.00
2024-02-07T10:02:52.258Z,866.00
2024-02-07T10:03:52.183Z,882.00
2024-02-07T10:04:52.188Z,899.00
2024-02-07T10:05:52.260Z,905.00
2024-02-07T10:06:52.194Z,912.00
2024-02-07T10:07:52.258Z,917.00
2024-02-07T10:08:52.237Z,924.00
2024-02-07T10:09:52.232Z,930.00
2024-02-07T10:10:53.067Z,937.00
2024-02-07T10:11:52.260Z,945.00
2024-02-07T10:12:52.257Z,950.00
2024-02-07T10:13:52.323Z,951.00
2024-02-07T10:14:52.341Z,961.00
2024-02-07T10:15:52.367Z,970.00
2024-02-07T10:16:52.463Z,979.00
2024-02-07T10:17:52.459Z,990.00
2024-02-07T10:18:52.540Z,996.00
2024-02-07T10:19:52.620Z,1006.00
2024-02-07T10:20:52.672Z,1012.00
2024-02-07T10:21:52.701Z,1017.00
2024-02-07T10:22:57.835Z,1015.00
2024-02-07T10:23:52.786Z,1022.00
2024-02-07T10:24:52.774Z,1027.00
2024-02-07T10:25:52.915Z,1041.00
2024-02-07T10:26:52.782Z,1067.00
2024-02-07T10:27:52.778Z,1077.00
2024-02-07T10:28:52.863Z,1080.00
2024-02-07T10:29:52.911Z,1084.00
2024-02-07T10:30:52.959Z,1088.00
2024-02-07T10:31:53.100Z,1099.00
2024-02-07T10:32:53.207Z,1102.00
2024-02-07T10:33:53.386Z,1108.00
2024-02-07T10:34:56.684Z,1112.00
2024-02-07T10:35:53.223Z,1124.00
2024-02-07T10:36:53.210Z,1132.00
2024-02-07T10:37:53.308Z,1136.00
2024-02-07T10:38:53.234Z,1138.00
2024-02-07T10:39:53.221Z,1148.00
2024-02-07T10:40:55.421Z,1154.00
2024-02-07T10:41:53.339Z,1157.00
2024-02-07T10:42:53.389Z,1163.00
2024-02-07T10:43:53.490Z,1171.00
2024-02-07T10:44:53.514Z,1175.00
2024-02-07T10:45:53.774Z,1180.00
2024-02-07T10:46:53.652Z,1192.00
2024-02-07T10:47:53.745Z,1194.00
2024-02-07T10:48:53.860Z,1199.00
2024-02-07T10:49:53.835Z,1194.00
2024-02-07T10:50:54.009Z,1186.00
2024-02-07T10:51:53.933Z,1179.00
2024-02-07T10:52:54.108Z,1173.00
2024-02-07T10:53:54.058Z,1169.00
2024-02-07T10:54:54.154Z,1173.00
2024-02-07T10:55:54.278Z,1172.00
2024-02-07T10:56:54.297Z,1235.00
2024-02-07T10:57:54.368Z,1250.00
2024-02-07T10:58:56.187Z,1254.00
2024-02-07T10:59:54.501Z,1255.00
2024-02-07T11:00:54.765Z,1258.00
2024-02-07T11:01:54.873Z,1260.00
2024-02-07T11:02:54.734Z,1260.00
2024-02-07T11:03:54.776Z,1267.00
2024-02-07T11:04:55.031Z,1275.00
2024-02-07T11:05:55.090Z,1284.00
2024-02-07T11:06:55.046Z,1295.00
2024-02-07T11:07:55.165Z,1304.00
2024-02-07T11:08:55.120Z,1311.00
2024-02-07T11:09:55.167Z,1319.00
2024-02-07T11:10:55.372Z,1319.00
2024-02-07T11:11:55.427Z,1315.00
2024-02-07T11:12:56.031Z,1177.00
2024-02-07T11:13:55.452Z,1169.00
2024-02-07T11:14:55.468Z,1154.00
2024-02-07T11:15:55.422Z,1069.00
2024-02-07T11:16:55.682Z,1083.00
2024-02-07T11:17:55.473Z,1074.00
2024-02-07T11:18:55.543Z,1048.00
2024-02-07T11:19:55.487Z,1001.00
2024-02-07T11:20:55.485Z,977.00
2024-02-07T11:21:55.471Z,965.00
2024-02-07T11:23:00.004Z,963.00
2024-02-07T11:23:55.513Z,969.00
2024-02-07T11:24:55.629Z,978.00
2024-02-07T11:25:55.705Z,988.00
2024-02-07T11:27:22.549Z,997.00
2024-02-07T11:27:55.479Z,1011.00
2024-02-07T11:28:55.523Z,1042.00
2024-02-07T11:29:55.596Z,1062.00
2024-02-07T11:30:55.525Z,1070.00
2024-02-07T11:31:55.555Z,1073.00
2024-02-07T11:32:55.569Z,1085.00
2024-02-07T11:33:55.609Z,1092.00
2024-02-07T11:34:56.052Z,1105.00
2024-02-07T11:35:55.729Z,1111.00
2024-02-07T11:36:55.608Z,1119.00
2024-02-07T11:37:55.554Z,1126.00
2024-02-07T11:38:55.530Z,1138.00
2024-02-07T11:39:55.492Z,1148.00
2024-02-07T11:40:55.560Z,1164.00
2024-02-07T11:41:55.509Z,1172.00
2024-02-07T11:42:55.511Z,1181.00
2024-02-07T11:43:55.904Z,1181.00
2024-02-07T11:44:55.513Z,1170.00
2024-02-07T11:45:55.506Z,1172.00
2024-02-07T11:46:55.578Z,1168.00
2024-02-07T11:47:55.636Z,1148.00
2024-02-07T11:48:55.804Z,1127.00
2024-02-07T11:49:55.550Z,1112.00
2024-02-07T11:50:55.532Z,1099.00
2024-02-07T11:51:55.654Z,1087.00
2024-02-07T11:52:55.644Z,1082.00
2024-02-07T11:53:55.521Z,1078.00
2024-02-07T11:54:55.524Z,1079.00
2024-02-07T11:55:55.567Z,1082.00
2024-02-07T11:56:55.538Z,1088.00
2024-02-07T11:57:55.560Z,1094.00
2024-02-07T11:58:55.591Z,1101.00
2024-02-07T11:59:55.552Z,1107.00
2024-02-07T12:00:55.568Z,1110.00
2024-02-07T12:01:55.562Z,1114.00
2024-02-07T12:02:55.566Z,1117.00
2024-02-07T12:03:55.544Z,1118.00
2024-02-07T12:04:55.647Z,1117.00
2024-02-07T12:05:55.720Z,1115.00
2024-02-07T12:06:55.602Z,1118.00
2024-02-07T12:07:55.578Z,1119.00
2024-02-07T12:08:55.566Z,1120.00
2024-02-07T12:09:55.560Z,1119.00
2024-02-07T12:10:55.583Z,1121.00
2024-02-07T12:11:55.554Z,1120.00
2024-02-07T12:12:57.587Z,1121.00
2024-02-07T12:13:55.636Z,1119.00
2024-02-07T12:14:55.605Z,1116.00
2024-02-07T12:15:55.567Z,1116.00
2024-02-07T12:16:55.601Z,1118.00
2024-02-07T12:17:55.623Z,1116.00
2024-02-07T12:18:55.723Z,1117.00
2024-02-07T12:19:55.619Z,1120.00
2024-02-07T12:20:55.734Z,1118.00
2024-02-07T12:21:55.580Z,1118.00
2024-02-07T12:22:55.668Z,1116.00
2024-02-07T12:23:55.655Z,1115.00
2024-02-07T12:24:55.684Z,1118.00